createdAt,value
2018-10-11T00:00:39.941Z,99.99
2018-10-11T00:01:39.939Z,99.99
2018-10-11T00:02:40.178Z,99.99
2018-10-11T00:03:40.173Z,99.99
2018-10-11T00:04:40.170Z,99.99
2018-10-11T00:05:40.161Z,99.99
2018-10-11T00:06:40.153Z,99.99
2018-10-11T00:07:40.145Z,99.99
2018-10-11T00:08:40.129Z,99.99
2018-10-11T00:09:40.121Z,99.99
2018-10-11T00:10:40.111Z,99.99
2018-10-11T00:11:39.850Z,99.99
2018-10-11T00:12:40.095Z,99.99
2018-10-11T00:13:40.093Z,99.99
2018-10-11T00:14:40.076Z,99.99
2018-10-11T00:15:39.815Z,99.99
2018-10-11T00:16:39.805Z,99.99
2018-10-11T00:17:40.060Z,99.99
2018-10-11T00:18:40.043Z,99.99
2018-10-11T00:19:39.781Z,99.99
2018-10-11T00:20:40.032Z,99.99
2018-10-11T00:21:40.021Z,99.99
2018-10-11T00:22:40.013Z,99.99
2018-10-11T00:23:39.749Z,99.99
2018-10-11T00:24:39.996Z,99.99
2018-10-11T00:25:39.989Z,99.99
2018-10-11T00:26:39.722Z,99.99
2018-10-11T00:27:39.712Z,99.99
2018-10-11T00:28:39.965Z,99.99
2018-10-11T00:29:39.694Z,99.99
2018-10-11T00:30:40.068Z,99.99
2018-10-11T00:31:39.938Z,99.99
2018-10-11T00:32:39.928Z,99.99
2018-10-11T00:33:39.919Z,99.99
2018-10-11T00:34:39.909Z,99.99
2018-10-11T00:35:39.900Z,99.99
2018-10-11T00:36:39.634Z,99.99
2018-10-11T00:37:39.883Z,99.99
2018-10-11T00:38:39.881Z,99.99
2018-10-11T00:39:39.867Z,99.99
2018-10-11T00:40:39.855Z,99.99
2018-10-11T00:41:39.848Z,99.99
2018-10-11T00:42:39.845Z,99.99
2018-10-11T00:43:39.832Z,99.99
2018-10-11T00:44:39.825Z,99.99
2018-10-11T00:45:39.819Z,99.99
2018-10-11T00:46:39.807Z,99.99
2018-10-11T00:47:39.541Z,99.99
2018-10-11T00:48:39.793Z,99.99
2018-10-11T00:49:39.912Z,99.99
2018-10-11T00:50:39.769Z,99.99
2018-10-11T00:51:39.506Z,99.99
2018-10-11T00:52:39.755Z,99.99
2018-10-11T00:53:39.746Z,99.99
2018-10-11T00:54:39.738Z,99.99
2018-10-11T00:55:39.728Z,99.99
2018-10-11T00:56:39.720Z,99.99
2018-10-11T00:57:39.714Z,99.99
2018-10-11T00:58:39.710Z,99.99
2018-10-11T00:59:39.439Z,99.99
2018-10-11T01:00:39.684Z,99.99
2018-10-11T01:01:39.676Z,99.99
2018-10-11T01:02:39.669Z,99.99
2018-10-11T01:03:39.659Z,99.99
2018-10-11T01:04:39.398Z,99.99
2018-10-11T01:05:39.642Z,99.99
2018-10-11T01:06:39.641Z,99.99
2018-10-11T01:07:39.626Z,99.99
2018-10-11T01:08:39.366Z,99.99
2018-10-11T01:09:39.611Z,99.99
2018-10-11T01:10:39.602Z,99.99
2018-10-11T01:11:39.594Z,99.99
2018-10-11T01:12:39.334Z,99.99
2018-10-11T01:13:39.324Z,99.99
2018-10-11T01:14:39.318Z,99.99
2018-10-11T01:15:39.557Z,99.99
2018-10-11T01:16:39.296Z,99.99
2018-10-11T01:17:39.542Z,99.99
2018-10-11T01:18:39.533Z,99.99
2018-10-11T01:19:39.526Z,99.99
2018-10-11T01:20:39.512Z,99.99
2018-10-11T01:21:39.506Z,99.99
2018-10-11T01:22:39.501Z,99.99
2018-10-11T01:23:39.238Z,99.99
2018-10-11T01:24:39.483Z,99.99
2018-10-11T01:25:39.473Z,99.99
2018-10-11T01:26:39.468Z,99.99
2018-10-11T01:27:39.456Z,99.99
2018-10-11T01:28:39.449Z,99.99
2018-10-11T01:29:39.257Z,99.99
2018-10-11T01:30:39.177Z,99.99
2018-10-11T01:31:39.420Z,99.99
2018-10-11T01:32:39.414Z,99.99
2018-10-11T01:33:39.147Z,99.99
2018-10-11T01:34:39.140Z,99.99
2018-10-11T01:35:39.391Z,99.99
2018-10-11T01:36:39.383Z,99.99
2018-10-11T01:37:39.370Z,99.99
2018-10-11T01:38:39.457Z,99.99
2018-10-11T01:39:39.351Z,99.99
2018-10-11T01:40:39.087Z,99.99
2018-10-11T01:41:39.333Z,99.99
2018-10-11T01:42:39.325Z,99.99
2018-10-11T01:43:39.319Z,99.99
2018-10-11T01:44:39.306Z,99.99
2018-10-11T01:45:39.298Z,99.99
2018-10-11T01:46:39.037Z,99.99
2018-10-11T01:47:39.282Z,99.99
2018-10-11T01:48:39.015Z,99.99
2018-10-11T01:49:39.004Z,99.99
2018-10-11T01:50:39.253Z,99.99
2018-10-11T01:51:39.248Z,99.99
2018-10-11T01:52:39.235Z,99.99
2018-10-11T01:53:39.225Z,99.99
2018-10-11T01:54:38.959Z,99.99
2018-10-11T01:55:39.207Z,99.99
2018-10-11T01:56:39.320Z,99.99
2018-10-11T01:57:39.190Z,99.99
2018-10-11T01:58:39.181Z,99.99
2018-10-11T01:59:39.168Z,99.99
2018-10-11T02:00:38.902Z,99.99
2018-10-11T02:01:39.150Z,99.99
2018-10-11T02:02:39.143Z,99.99
2018-10-11T02:03:39.128Z,99.99
2018-10-11T02:04:39.121Z,99.99
2018-10-11T02:05:39.112Z,99.99
2018-10-11T02:06:38.845Z,99.99
2018-10-11T02:07:39.090Z,99.99
2018-10-11T02:08:39.082Z,99.99
2018-10-11T02:09:39.427Z,99.99
2018-10-11T02:10:39.070Z,99.99
2018-10-11T02:11:39.064Z,99.99
2018-10-11T02:12:39.043Z,99.99
2018-10-11T02:13:39.031Z,99.99
2018-10-11T02:14:39.025Z,99.99
2018-10-11T02:15:39.016Z,99.99
2018-10-11T02:16:39.015Z,99.99
2018-10-11T02:17:38.995Z,99.99
2018-10-11T02:18:38.985Z,99.99
2018-10-11T02:19:38.977Z,99.99
2018-10-11T02:20:38.965Z,99.99
2018-10-11T02:21:38.709Z,99.99
2018-10-11T02:22:38.691Z,99.99
2018-10-11T02:23:38.946Z,99.99
2018-10-11T02:24:38.932Z,99.99
2018-10-11T02:25:38.923Z,99.99
2018-10-11T02:26:38.917Z,99.99
2018-10-11T02:27:38.904Z,99.99
2018-10-11T02:28:38.893Z,99.99
2018-10-11T02:29:38.880Z,99.99
2018-10-11T02:30:38.873Z,99.99
2018-10-11T02:31:38.603Z,99.99
2018-10-11T02:32:38.849Z,99.99
2018-10-11T02:33:38.839Z,99.99
2018-10-11T02:34:38.830Z,99.99
2018-10-11T02:35:38.820Z,99.99
2018-10-11T02:36:38.810Z,99.99
2018-10-11T02:37:38.925Z,99.99
2018-10-11T02:38:38.793Z,99.99
2018-10-11T02:39:38.785Z,99.99
2018-10-11T02:40:38.769Z,99.99
2018-10-11T02:41:38.760Z,99.99
2018-10-11T02:42:38.830Z,99.99
2018-10-11T02:43:38.743Z,99.99
2018-10-11T02:44:38.734Z,99.99
2018-10-11T02:45:38.726Z,99.99
2018-10-11T02:46:38.731Z,99.99
2018-10-11T02:47:38.703Z,99.99
2018-10-11T02:48:38.441Z,99.99
2018-10-11T02:49:38.432Z,99.99
2018-10-11T02:50:38.422Z,99.99
2018-10-11T02:51:38.665Z,99.99
2018-10-11T02:52:38.671Z,99.99
2018-10-11T02:53:38.395Z,99.99
2018-10-11T02:54:38.638Z,99.99
2018-10-11T02:55:38.630Z,99.99
2018-10-11T02:56:38.620Z,99.99
2018-10-11T02:57:38.617Z,99.99
2018-10-11T02:58:38.606Z,99.99
2018-10-11T02:59:38.588Z,99.99
2018-10-11T03:00:38.588Z,99.99
2018-10-11T03:01:38.314Z,99.99
2018-10-11T03:02:38.560Z,99.99
2018-10-11T03:03:38.551Z,99.99
2018-10-11T03:04:38.546Z,99.99
2018-10-11T03:05:38.531Z,99.99
2018-10-11T03:06:38.540Z,99.99
2018-10-11T03:07:38.513Z,99.99
2018-10-11T03:08:38.501Z,99.99
2018-10-11T03:09:38.494Z,99.99
2018-10-11T03:10:38.483Z,99.99
2018-10-11T03:11:38.475Z,99.99
2018-10-11T03:12:38.466Z,99.99
2018-10-11T03:13:38.454Z,99.99
2018-10-11T03:14:38.448Z,99.99
2018-10-11T03:15:38.435Z,99.99
2018-10-11T03:16:38.422Z,99.99
2018-10-11T03:17:38.417Z,99.99
2018-10-11T03:18:38.407Z,99.99
2018-10-11T03:19:38.143Z,99.99
2018-10-11T03:20:38.130Z,99.99
2018-10-11T03:21:38.377Z,99.99
2018-10-11T03:22:38.371Z,99.99
2018-10-11T03:23:38.101Z,99.99
2018-10-11T03:24:38.090Z,99.99
2018-10-11T03:25:38.335Z,99.99
2018-10-11T03:26:38.326Z,99.99
2018-10-11T03:27:38.316Z,99.99
2018-10-11T03:28:38.306Z,99.99
2018-10-11T03:29:38.042Z,99.99
2018-10-11T03:30:38.289Z,99.99
2018-10-11T03:31:38.025Z,99.99
2018-10-11T03:32:38.267Z,99.99
2018-10-11T03:33:38.260Z,99.99
2018-10-11T03:34:38.257Z,99.99
2018-10-11T03:35:38.240Z,99.99
2018-10-11T03:36:38.227Z,99.99
2018-10-11T03:37:38.544Z,99.99
2018-10-11T03:38:38.211Z,99.99
2018-10-11T03:39:38.200Z,99.99
2018-10-11T03:40:38.197Z,99.99
2018-10-11T03:41:38.179Z,99.99
2018-10-11T03:42:38.168Z,99.99
2018-10-11T03:43:38.158Z,99.99
2018-10-11T03:44:38.156Z,99.99
2018-10-11T03:45:38.145Z,99.99
2018-10-11T03:46:38.376Z,99.99
2018-10-11T03:47:38.116Z,99.99
2018-10-11T03:48:38.108Z,99.99
2018-10-11T03:49:38.101Z,99.99
2018-10-11T03:50:38.091Z,99.99
2018-10-11T03:51:38.080Z,99.99
2018-10-11T03:52:38.069Z,99.99
2018-10-11T03:53:38.058Z,99.99
2018-10-11T03:54:37.793Z,99.99
2018-10-11T03:55:38.043Z,99.99
2018-10-11T03:56:38.029Z,99.99
2018-10-11T03:57:38.017Z,99.99
2018-10-11T03:58:38.012Z,99.99
2018-10-11T03:59:38.000Z,99.99
2018-10-11T04:00:37.992Z,99.99
2018-10-11T04:01:37.980Z,99.99
2018-10-11T04:02:37.712Z,99.99
2018-10-11T04:03:37.702Z,99.99
2018-10-11T04:04:37.948Z,99.99
2018-10-11T04:05:37.946Z,99.99
2018-10-11T04:06:37.672Z,99.99
2018-10-11T04:07:38.028Z,99.99
2018-10-11T04:08:37.909Z,99.99
2018-10-11T04:09:37.898Z,99.99
2018-10-11T04:10:37.888Z,99.99
2018-10-11T04:11:37.887Z,99.99
2018-10-11T04:12:37.867Z,99.99
2018-10-11T04:13:37.861Z,99.99
2018-10-11T04:14:37.853Z,99.99
2018-10-11T04:15:37.655Z,99.99
2018-10-11T04:16:37.831Z,99.99
2018-10-11T04:17:37.825Z,99.99
2018-10-11T04:18:37.807Z,99.99
2018-10-11T04:19:37.800Z,99.99
2018-10-11T04:20:37.791Z,99.99
2018-10-11T04:21:37.782Z,99.99
2018-10-11T04:22:37.768Z,99.99
2018-10-11T04:23:37.769Z,99.99
2018-10-11T04:24:37.748Z,99.99
2018-10-11T04:25:37.735Z,99.99
2018-10-11T04:26:37.729Z,99.99
2018-10-11T04:27:37.716Z,99.99
2018-10-11T04:28:37.707Z,99.99
2018-10-11T04:29:37.443Z,99.99
2018-10-11T04:30:37.687Z,99.99
2018-10-11T04:31:37.680Z,99.99
2018-10-11T04:32:37.673Z,99.99
2018-10-11T04:33:37.707Z,99.99
2018-10-11T04:34:37.645Z,99.99
2018-10-11T04:35:37.662Z,99.99
2018-10-11T04:36:37.627Z,99.99
2018-10-11T04:37:37.615Z,99.99
2018-10-11T04:38:37.606Z,99.99
2018-10-11T04:39:37.603Z,99.99
2018-10-11T04:40:37.592Z,99.99
2018-10-11T04:41:37.574Z,99.99
2018-10-11T04:42:37.653Z,99.99
2018-10-11T04:43:37.555Z,99.99
2018-10-11T04:44:37.545Z,99.99
2018-10-11T04:45:37.538Z,99.99
2018-10-11T04:46:37.529Z,99.99
2018-10-11T04:47:37.518Z,99.99
2018-10-11T04:48:37.505Z,99.99
2018-10-11T04:49:37.494Z,99.99
2018-10-11T04:50:37.483Z,99.99
2018-10-11T04:51:37.475Z,99.99
2018-10-11T04:52:37.466Z,99.99
2018-10-11T04:53:37.632Z,99.99
2018-10-11T04:54:37.448Z,99.99
2018-10-11T04:55:37.434Z,99.99
2018-10-11T04:56:37.458Z,99.99
2018-10-11T04:57:37.413Z,99.99
2018-10-11T04:58:37.405Z,99.99
2018-10-11T04:59:37.470Z,99.99
2018-10-11T05:00:37.385Z,99.99
2018-10-11T05:01:37.376Z,99.99
2018-10-11T05:02:37.365Z,99.99
2018-10-11T05:03:37.352Z,99.99
2018-10-11T05:04:37.088Z,99.99
2018-10-11T05:05:37.331Z,99.99
2018-10-11T05:06:37.326Z,99.99
2018-10-11T05:07:37.319Z,99.99
2018-10-11T05:08:37.305Z,99.99
2018-10-11T05:09:37.292Z,99.99
2018-10-11T05:10:37.025Z,99.99
2018-10-11T05:11:37.270Z,99.03
2018-10-11T05:12:37.007Z,99.18
2018-10-11T05:13:37.252Z,98.89
2018-10-11T05:14:37.241Z,97.36
2018-10-11T05:15:37.229Z,96.12
2018-10-11T05:16:37.222Z,95.94
2018-10-11T05:17:37.213Z,95.84
2018-10-11T05:18:37.201Z,95.56
2018-10-11T05:19:37.194Z,94.6
2018-10-11T05:20:37.183Z,94.79
2018-10-11T05:21:37.337Z,95.46
2018-10-11T05:22:37.164Z,95.75
2018-10-11T05:23:37.151Z,95.75
2018-10-11T05:24:37.146Z,96.03
2018-10-11T05:25:37.190Z,96.03
2018-10-11T05:26:37.125Z,96.22
2018-10-11T05:27:37.112Z,95.84
2018-10-11T05:28:36.846Z,96.12
2018-10-11T05:29:37.113Z,96.51
2018-10-11T05:30:37.082Z,96.41
2018-10-11T05:31:36.817Z,96.32
2018-10-11T05:32:37.060Z,95.75
2018-10-11T05:33:37.055Z,95.75
2018-10-11T05:34:37.052Z,94.79
2018-10-11T05:35:37.034Z,94.7
2018-10-11T05:36:37.024Z,94.98
2018-10-11T05:37:37.011Z,94.13
2018-10-11T05:38:37.004Z,93.37
2018-10-11T05:39:36.992Z,93.27
2018-10-11T05:40:36.983Z,93.08
2018-10-11T05:41:36.971Z,92.6
2018-10-11T05:42:36.967Z,92.6
2018-10-11T05:43:36.951Z,92.55
2018-10-11T05:44:37.183Z,92.13
2018-10-11T05:45:36.936Z,91.27
2018-10-11T05:46:36.929Z,92.36
2018-10-11T05:47:36.916Z,92.55
2018-10-11T05:48:36.912Z,91.31
2018-10-11T05:49:36.896Z,91.5
2018-10-11T05:50:36.891Z,92.46
2018-10-11T05:51:36.619Z,91.94
2018-10-11T05:52:36.866Z,91.17
2018-10-11T05:53:36.601Z,90.7
2018-10-11T05:54:36.857Z,91.03
2018-10-11T05:55:36.836Z,91.5
2018-10-11T05:56:36.901Z,91.5
2018-10-11T05:57:36.817Z,91.41
2018-10-11T05:58:36.552Z,91.03
2018-10-11T05:59:36.804Z,91.31
2018-10-11T06:00:36.535Z,91.41
2018-10-11T06:01:36.524Z,90.74
2018-10-11T06:02:36.766Z,91.5
2018-10-11T06:03:36.760Z,91.31
2018-10-11T06:04:36.748Z,90.55
2018-10-11T06:05:36.743Z,89.98
2018-10-11T06:06:36.731Z,89.5
2018-10-11T06:07:36.720Z,89.69
2018-10-11T06:08:36.712Z,90.64
2018-10-11T06:09:36.704Z,90.17
2018-10-11T06:10:36.694Z,90.03
2018-10-11T06:11:36.683Z,90.17
2018-10-11T06:12:36.674Z,89.98
2018-10-11T06:13:36.663Z,89.69
2018-10-11T06:14:36.661Z,89.12
2018-10-11T06:15:36.648Z,89.69
2018-10-11T06:16:36.637Z,90.26
2018-10-11T06:17:36.669Z,89.6
2018-10-11T06:18:36.362Z,90.45
2018-10-11T06:19:36.353Z,89.22
2018-10-11T06:20:36.596Z,88.64
2018-10-11T06:21:36.594Z,89.22
2018-10-11T06:22:36.588Z,88.64
2018-10-11T06:23:36.569Z,89.4
2018-10-11T06:24:36.609Z,88.84
2018-10-11T06:25:36.295Z,89.31
2018-10-11T06:26:36.541Z,89.31
2018-10-11T06:27:36.280Z,89.31
2018-10-11T06:28:36.523Z,89.89
2018-10-11T06:29:36.510Z,88.55
2018-10-11T06:30:36.250Z,88.74
2018-10-11T06:31:36.499Z,88.26
2018-10-11T06:32:36.491Z,88.17
2018-10-11T06:33:36.220Z,88.17
2018-10-11T06:34:36.470Z,88.64
2018-10-11T06:35:36.454Z,88.17
2018-10-11T06:36:36.652Z,88.45
2018-10-11T06:37:36.185Z,88.45
2018-10-11T06:38:36.174Z,88.55
2018-10-11T06:39:36.420Z,89.12
2018-10-11T06:40:36.155Z,89.5
2018-10-11T06:41:36.444Z,89.31
2018-10-11T06:42:36.490Z,88.26
2018-10-11T06:43:36.132Z,88.55
2018-10-11T06:44:36.385Z,88.26
2018-10-11T06:45:36.361Z,88.55
2018-10-11T06:46:36.372Z,88.07
2018-10-11T06:47:36.351Z,87.69
2018-10-11T06:48:36.333Z,86.93
2018-10-11T06:49:36.352Z,86.45
2018-10-11T06:50:36.319Z,85.88
2018-10-11T06:51:36.306Z,85.78
2018-10-11T06:52:36.300Z,84.36
2018-10-11T06:53:36.287Z,84.16
2018-10-11T06:54:36.022Z,82.17
2018-10-11T06:55:36.280Z,81.68
2018-10-11T06:56:36.005Z,81.73
2018-10-11T06:57:35.996Z,81.82
2018-10-11T06:58:36.238Z,81.06
2018-10-11T06:59:36.241Z,80.3
2018-10-11T07:00:36.226Z,80.2
2018-10-11T07:01:36.294Z,80.49
2018-10-11T07:02:36.209Z,79.53
2018-10-11T07:03:36.295Z,79.35
2018-10-11T07:04:36.184Z,79.72
2018-10-11T07:05:36.175Z,80.11
2018-10-11T07:06:36.171Z,80.2
2018-10-11T07:07:36.158Z,80.49
2018-10-11T07:08:36.152Z,79.82
2018-10-11T07:09:36.143Z,78.86
2018-10-11T07:10:36.131Z,78.58
2018-10-11T07:11:36.122Z,79.53
2018-10-11T07:12:36.122Z,79.72
2018-10-11T07:13:36.108Z,80.77
2018-10-11T07:14:35.841Z,80.49
2018-10-11T07:15:36.086Z,80.49
2018-10-11T07:16:36.082Z,79.82
2018-10-11T07:17:36.076Z,79.06
2018-10-11T07:18:36.057Z,78.1
2018-10-11T07:19:36.296Z,77.82
2018-10-11T07:20:36.043Z,78.05
2018-10-11T07:21:36.039Z,79.19
2018-10-11T07:22:36.025Z,78.91
2018-10-11T07:23:35.764Z,79.48
2018-10-11T07:24:35.752Z,78.14
2018-10-11T07:25:36.002Z,76.42
2018-10-11T07:26:35.988Z,76.81
2018-10-11T07:27:35.983Z,77.19
2018-10-11T07:28:35.719Z,76.52
2018-10-11T07:29:35.710Z,77.38
2018-10-11T07:30:35.959Z,76.42
2018-10-11T07:31:35.945Z,75.76
2018-10-11T07:32:35.938Z,75.28
2018-10-11T07:33:35.930Z,74.23
2018-10-11T07:34:36.048Z,74.32
2018-10-11T07:35:35.742Z,74.42
2018-10-11T07:36:35.653Z,74.42
2018-10-11T07:37:35.901Z,73.37
2018-10-11T07:38:35.895Z,73.75
2018-10-11T07:39:35.625Z,73.56
2018-10-11T07:40:36.076Z,73.94
2018-10-11T07:41:35.861Z,74.42
2018-10-11T07:42:35.853Z,74.04
2018-10-11T07:43:35.847Z,72.51
2018-10-11T07:44:35.837Z,70.54
2018-10-11T07:45:35.576Z,69.78
2018-10-11T07:46:35.566Z,68.73
2018-10-11T07:47:35.814Z,68.73
2018-10-11T07:48:35.803Z,68.63
2018-10-11T07:49:35.798Z,69.11
2018-10-11T07:50:35.788Z,68.06
2018-10-11T07:51:35.778Z,68.26
2018-10-11T07:52:35.517Z,67.81
2018-10-11T07:53:35.765Z,67.49
2018-10-11T07:54:35.762Z,67.3
2018-10-11T07:55:35.492Z,67.71
2018-10-11T07:56:35.744Z,68.1
2018-10-11T07:57:35.737Z,66.47
2018-10-11T07:58:35.725Z,66.66
2018-10-11T07:59:35.727Z,65.14
2018-10-11T08:00:35.708Z,63.23
2018-10-11T08:01:35.478Z,63.32
2018-10-11T08:02:35.698Z,62.59
2018-10-11T08:03:35.850Z,62.4
2018-10-11T08:04:35.681Z,62.97
2018-10-11T08:05:35.666Z,63.16
2018-10-11T08:06:35.406Z,62.59
2018-10-11T08:07:35.767Z,62.78
2018-10-11T08:08:35.446Z,62.3
2018-10-11T08:09:35.383Z,62.59
2018-10-11T08:10:35.927Z,63.26
2018-10-11T08:11:36.024Z,63.16
2018-10-11T08:12:35.616Z,63.35
2018-10-11T08:13:35.749Z,63.73
2018-10-11T08:14:35.630Z,62.01
2018-10-11T08:15:35.339Z,61.25
2018-10-11T08:16:35.932Z,61.28
2018-10-11T08:17:36.748Z,61.76
2018-10-11T08:18:35.622Z,61.82
2018-10-11T08:19:36.006Z,60.8
2018-10-11T08:20:35.710Z,60.9
2018-10-11T08:21:35.659Z,61.38
2018-10-11T08:22:35.556Z,60.61
2018-10-11T08:23:35.535Z,60.23
2018-10-11T08:24:35.630Z,59.66
2018-10-11T08:25:36.708Z,59.66
2018-10-11T08:26:35.622Z,60.13
2018-10-11T08:27:35.507Z,59.94
2018-10-11T08:28:35.504Z,60.13
2018-10-11T08:29:35.494Z,60.13
2018-10-11T08:30:35.236Z,59.75
2018-10-11T08:31:35.640Z,58.7
2018-10-11T08:32:35.526Z,57.84
2018-10-11T08:33:35.467Z,58.83
2018-10-11T08:34:35.458Z,59.01
2018-10-11T08:35:35.454Z,59.11
2018-10-11T08:36:35.446Z,59.59
2018-10-11T08:37:35.547Z,60.45
2018-10-11T08:38:35.644Z,59.84
2018-10-11T08:39:35.427Z,59.69
2018-10-11T08:40:35.426Z,59.3
2018-10-11T08:41:35.447Z,58.63
2018-10-11T08:42:35.153Z,59.11
2018-10-11T08:43:35.656Z,58.63
2018-10-11T08:44:35.141Z,59.78
2018-10-11T08:45:35.388Z,58.34
2018-10-11T08:46:35.381Z,58.44
2018-10-11T08:47:35.373Z,58.06
2018-10-11T08:48:35.112Z,57.42
2018-10-11T08:49:35.359Z,56.27
2018-10-11T08:50:35.396Z,56.84
2018-10-11T08:51:35.095Z,55.79
2018-10-11T08:52:35.343Z,55.79
2018-10-11T08:53:35.464Z,54.64
2018-10-11T08:54:35.329Z,55.12
2018-10-11T08:55:35.668Z,55.24
2018-10-11T08:56:35.063Z,54.86
2018-10-11T08:57:35.056Z,54.67
2018-10-11T08:58:35.310Z,55.34
2018-10-11T08:59:35.097Z,55.63
2018-10-11T09:00:35.293Z,54.96
2018-10-11T09:01:35.033Z,55.53
2018-10-11T09:02:35.286Z,54.1
2018-10-11T09:03:35.631Z,54.41
2018-10-11T09:04:35.270Z,53.07
2018-10-11T09:05:35.263Z,52.2
2018-10-11T09:06:35.263Z,51.15
2018-10-11T09:07:35.252Z,50.6
2018-10-11T09:08:34.992Z,51.08
2018-10-11T09:09:35.397Z,51.46
2018-10-11T09:10:41.342Z,53
2018-10-11T09:11:35.234Z,53.86
2018-10-11T09:12:35.229Z,54.05
2018-10-11T09:13:35.220Z,53.09
2018-10-11T09:14:34.960Z,51.46
2018-10-11T09:15:35.216Z,50.99
2018-10-11T09:16:35.204Z,50.12
2018-10-11T09:17:35.203Z,49.74
2018-10-11T09:18:35.195Z,49.93
2018-10-11T09:19:35.186Z,49.65
2018-10-11T09:20:35.184Z,49.36
2018-10-11T09:21:35.178Z,49.67
2018-10-11T09:22:35.179Z,49.48
2018-10-11T09:23:35.175Z,48.23
2018-10-11T09:24:34.907Z,48.78
2018-10-11T09:25:35.157Z,49.67
2018-10-11T09:26:35.152Z,49.29
2018-10-11T09:27:34.893Z,49.48
2018-10-11T09:28:35.150Z,48.61
2018-10-11T09:29:34.884Z,48.04
2018-10-11T09:30:34.878Z,46.89
2018-10-11T09:31:35.140Z,46.79
2018-10-11T09:32:35.129Z,45.64
2018-10-11T09:33:34.866Z,44.61
2018-10-11T09:34:35.118Z,44.42
2018-10-11T09:35:35.114Z,44.51
2018-10-11T09:36:35.339Z,44.03
2018-10-11T09:37:34.848Z,44.03
2018-10-11T09:38:35.094Z,43.77
2018-10-11T09:39:34.843Z,43.67
2018-10-11T09:40:34.840Z,43.96
2018-10-11T09:41:35.085Z,43.57
2018-10-11T09:42:35.081Z,44.82
2018-10-11T09:43:35.079Z,45.11
2018-10-11T09:44:35.069Z,44.84
2018-10-11T09:45:35.065Z,44.54
2018-10-11T09:46:34.806Z,42.44
2018-10-11T09:47:34.801Z,43.31
2018-10-11T09:48:35.081Z,43.98
2018-10-11T09:49:35.049Z,44.27
2018-10-11T09:50:34.790Z,45.81
2018-10-11T09:51:34.785Z,45.9
2018-10-11T09:52:34.784Z,44.96
2018-10-11T09:53:35.034Z,43.23
2018-10-11T09:54:35.311Z,42.37
2018-10-11T09:55:34.770Z,41.79
2018-10-11T09:56:34.766Z,42.37
2018-10-11T09:57:34.761Z,42.08
2018-10-11T09:58:35.014Z,41.41
2018-10-11T09:59:35.010Z,41.41
2018-10-11T10:00:35.014Z,41.5
2018-10-11T10:01:34.750Z,42.37
2018-10-11T10:02:34.996Z,43.07
2018-10-11T10:03:34.994Z,43.84
2018-10-11T10:04:34.993Z,42.87
2018-10-11T10:05:34.988Z,42.77
2018-10-11T10:06:34.728Z,42.3
2018-10-11T10:07:34.979Z,41.24
2018-10-11T10:08:34.976Z,41.43
2018-10-11T10:09:34.973Z,40.47
2018-10-11T10:10:34.975Z,39.12
2018-10-11T10:11:34.966Z,38.93
2018-10-11T10:12:34.964Z,39.7
2018-10-11T10:13:34.704Z,40.76
2018-10-11T10:14:34.956Z,41.05
2018-10-11T10:15:35.050Z,40.01
2018-10-11T10:16:34.952Z,39.99
2018-10-11T10:17:34.945Z,39.81
2018-10-11T10:18:34.945Z,40.08
2018-10-11T10:19:34.945Z,40.37
2018-10-11T10:20:34.940Z,39.91
2018-10-11T10:21:35.076Z,39.91
2018-10-11T10:22:34.936Z,40.68
2018-10-11T10:23:34.928Z,40.3
2018-10-11T10:24:34.930Z,40.49
2018-10-11T10:25:35.196Z,40.49
2018-10-11T10:26:34.969Z,40.49
2018-10-11T10:27:35.481Z,38.95
2018-10-11T10:28:34.912Z,39.91
2018-10-11T10:29:34.656Z,41.83
2018-10-11T10:30:34.913Z,40.22
2018-10-11T10:31:34.648Z,40.03
2018-10-11T10:32:34.646Z,41.16
2018-10-11T10:33:34.899Z,38.78
2018-10-11T10:34:34.895Z,38.47
2018-10-11T10:35:34.891Z,37.52
2018-10-11T10:36:34.895Z,37.72
2018-10-11T10:37:34.915Z,39.33
2018-10-11T10:38:34.883Z,39.16
2018-10-11T10:39:34.888Z,38.1
2018-10-11T10:40:34.877Z,39.06
2018-10-11T10:41:34.881Z,38.68
2018-10-11T10:42:34.873Z,40.22
2018-10-11T10:43:34.625Z,39.64
2018-10-11T10:44:34.870Z,38.78
2018-10-11T10:45:34.659Z,38.49
2018-10-11T10:46:34.860Z,38.49
2018-10-11T10:47:34.859Z,39.06
2018-10-11T10:48:34.856Z,38.78
2018-10-11T10:49:34.855Z,38.49
2018-10-11T10:50:34.597Z,37.62
2018-10-11T10:51:34.861Z,37.35
2018-10-11T10:52:34.591Z,37.45
2018-10-11T10:53:34.847Z,37.74
2018-10-11T10:54:34.842Z,38.22
2018-10-11T10:55:34.842Z,37.83
2018-10-11T10:56:34.849Z,37.45
2018-10-11T10:57:34.836Z,37.45
2018-10-11T10:58:34.832Z,37.26
2018-10-11T10:59:34.574Z,36.87
2018-10-11T11:00:34.826Z,36.87
2018-10-11T11:01:34.824Z,37.83
2018-10-11T11:02:34.821Z,38.12
2018-10-11T11:03:34.819Z,37.26
2018-10-11T11:04:34.818Z,37.35
2018-10-11T11:05:34.825Z,37.45
2018-10-11T11:06:34.816Z,37.35
2018-10-11T11:07:34.826Z,37.83
2018-10-11T11:08:34.556Z,37.74
2018-10-11T11:09:34.813Z,37.26
2018-10-11T11:10:34.803Z,37.26
2018-10-11T11:11:34.801Z,37.26
2018-10-11T11:12:34.803Z,38.79
2018-10-11T11:13:34.540Z,38.89
2018-10-11T11:14:34.798Z,37.35
2018-10-11T11:15:34.795Z,35.62
2018-10-11T11:16:34.790Z,35.42
2018-10-11T11:17:34.789Z,35.04
2018-10-11T11:18:34.797Z,34.27
2018-10-11T11:19:34.781Z,35.14
2018-10-11T11:20:34.784Z,35.04
2018-10-11T11:21:34.524Z,35.14
2018-10-11T11:22:34.780Z,35.04
2018-10-11T11:23:34.522Z,35.04
2018-10-11T11:24:34.778Z,36
2018-10-11T11:25:34.809Z,35.81
2018-10-11T11:26:34.779Z,33.91
2018-10-11T11:27:34.767Z,33.69
2018-10-11T11:28:34.512Z,33.4
2018-10-11T11:29:34.762Z,32.54
2018-10-11T11:30:34.759Z,33.31
2018-10-11T11:31:34.779Z,33.21
2018-10-11T11:32:34.758Z,33.59
2018-10-11T11:33:34.498Z,33.59
2018-10-11T11:34:34.755Z,34.66
2018-10-11T11:35:34.749Z,35.14
2018-10-11T11:36:34.498Z,34.94
2018-10-11T11:37:34.487Z,35.04
2018-10-11T11:38:34.741Z,35.14
2018-10-11T11:39:34.744Z,35.52
2018-10-11T11:40:34.740Z,36
2018-10-11T11:41:34.481Z,36.39
2018-10-11T11:42:34.735Z,35.42
2018-10-11T11:43:34.477Z,35.52
2018-10-11T11:44:34.476Z,34.84
2018-10-11T11:45:34.736Z,35.62
2018-10-11T11:46:34.473Z,35.71
2018-10-11T11:47:34.724Z,35.71
2018-10-11T11:48:34.725Z,36.77
2018-10-11T11:49:34.465Z,36.77
2018-10-11T11:50:34.911Z,35.91
2018-10-11T11:51:34.463Z,35.91
2018-10-11T11:52:34.711Z,35.14
2018-10-11T11:53:34.457Z,34.84
2018-10-11T11:54:34.838Z,36.1
2018-10-11T11:55:34.706Z,36
2018-10-11T11:56:34.710Z,35.91
2018-10-11T11:57:34.703Z,34.75
2018-10-11T11:58:34.700Z,35.14
2018-10-11T11:59:34.444Z,36.58
2018-10-11T12:00:34.443Z,35.52
2018-10-11T12:01:34.693Z,35.91
2018-10-11T12:02:34.767Z,36.39
2018-10-11T12:03:34.692Z,35.89
2018-10-11T12:04:34.688Z,36.1
2018-10-11T12:05:34.434Z,36.85
2018-10-11T12:06:34.431Z,37.04
2018-10-11T12:07:34.682Z,36.56
2018-10-11T12:08:34.684Z,35.89
2018-10-11T12:09:34.422Z,36.18
2018-10-11T12:10:34.925Z,37.34
2018-10-11T12:11:34.674Z,37.72
2018-10-11T12:12:34.416Z,37.52
2018-10-11T12:13:34.413Z,37.43
2018-10-11T12:14:34.669Z,38.2
2018-10-11T12:15:34.663Z,37.81
2018-10-11T12:16:34.782Z,37.34
2018-10-11T12:17:34.406Z,37.72
2018-10-11T12:18:34.663Z,38.2
2018-10-11T12:19:34.662Z,37.81
2018-10-11T12:20:34.661Z,37.81
2018-10-11T12:21:34.658Z,37.72
2018-10-11T12:22:34.653Z,38.2
2018-10-11T12:23:34.650Z,38.39
2018-10-11T12:24:34.652Z,37.62
2018-10-11T12:25:34.641Z,36.66
2018-10-11T12:26:34.385Z,36.76
2018-10-11T12:27:34.652Z,38.01
2018-10-11T12:28:34.914Z,38.29
2018-10-11T12:29:34.641Z,37.43
2018-10-11T12:30:34.375Z,37.04
2018-10-11T12:31:34.377Z,37.43
2018-10-11T12:32:34.625Z,38.68
2018-10-11T12:33:34.627Z,38.49
2018-10-11T12:34:34.623Z,39.93
2018-10-11T12:35:34.367Z,38.59
2018-10-11T12:36:34.904Z,37.43
2018-10-11T12:37:34.408Z,38.1
2018-10-11T12:38:34.759Z,38.37
2018-10-11T12:39:34.359Z,39.36
2018-10-11T12:40:34.615Z,38.97
2018-10-11T12:41:34.632Z,39.04
2018-10-11T12:42:34.921Z,39.64
2018-10-11T12:43:34.348Z,40.03
2018-10-11T12:44:34.608Z,39.45
2018-10-11T12:45:34.604Z,39.16
2018-10-11T12:46:42.289Z,38.39
2018-10-11T12:47:34.596Z,38.29
2018-10-11T12:48:34.593Z,38.87
2018-10-11T12:49:36.459Z,38.59
2018-10-11T12:50:34.587Z,38.49
2018-10-11T12:51:34.591Z,39.16
2018-10-11T12:52:34.582Z,39.16
2018-10-11T12:53:34.583Z,39.36
2018-10-11T12:54:34.324Z,38.59